Briefing drone pour Saint-marcel-les-valence

Rechercher une autre localisation

Conditions de vol :


Nous sommes le : Mercredi 27 janvier 2021
Il est 08:10 UTC (09:10 LT)

Lever de soleil : 06:38 UTC (07:38 LT)
Coucher de soleil : 17:07 UTC (18:07 LT)

Météo

L'essentiel des conditions de vol

VIGILANCE MÉTÉO FRANCE - Drôme (26)
Pas de vigilances particulieres
CARTES DES FRONTS
METAR de LFLU
LFLU 270800Z AUTO 28003KT 9999 BKN078 OVC088 01/M01 Q1019

Date d'émission: 27/01/2021
Heure d'émission: 08:00 UTC
Vent: 280° pour 3 KT (6 km/h)
Visibilité horizontale: > 10 km
Plafond :
- Nuages morcelés à 7800ft (2377m)
- Couvert à 8800ft (2682m)
Température: 1 °C
Point de rosée: -1 °C
Humidité: 86%
Pression (QNH): 1019 hPa
Prévision 24h pour Valence (3 km)
Vent : 330° pour 1 KT (5 km/h)
Temperature Maxi: 6 °C
Temperature Min: 6 °C
Humidité : 94%
Condition : Légère pluie



Warning: count(): Parameter must be an array or an object that implements Countable in /homepages/6/d509196549/htdocs/droneoxygene/briefing.php on line 743
WEBCAM POUR SAINT-MARCEL-LES-VALENCE

Réglementation

Voler en sécurité

CARTES AERONAUTIQUE 1/500.000
CARTES VAC (LFLU)
SUP AIP




Chargement des AIP...
NOTAM (SAINT-MARCEL-LES-VALENCE + Terrain à proximité / FIR )




Chargement des NOTAMS...
CONTACT PREFECTURE 26
Drôme (26) : ddt-sdsr@drome.gouv.fr


Avertissement : Les données mises à disposition sont indicatives. Oxygène Drone ne pourra être tenu responsable de dégâts causés aux biens et aux personnes.